sensor_id;sensor_type;location;lat;lon;timestamp;temperature;humidity
21801;DHT22;11062;51.164;16.924;2022-08-04T00:00:24;37.30;41.60
21801;DHT22;11062;51.164;16.924;2022-08-04T00:09:23;38.00;40.70
21801;DHT22;11062;51.164;16.924;2022-08-04T00:12:02;38.30;40.10
21801;DHT22;11062;51.164;16.924;2022-08-04T00:15:01;38.30;40.30
21801;DHT22;11062;51.164;16.924;2022-08-04T00:17:45;38.20;40.10
21801;DHT22;11062;51.164;16.924;2022-08-04T00:20:18;38.20;39.70
21801;DHT22;11062;51.164;16.924;2022-08-04T00:22:46;38.20;39.70
21801;DHT22;11062;51.164;16.924;2022-08-04T00:25:14;38.10;39.90
21801;DHT22;11062;51.164;16.924;2022-08-04T00:27:44;38.10;39.70
21801;DHT22;11062;51.164;16.924;2022-08-04T00:30:11;38.10;39.60
21801;DHT22;11062;51.164;16.924;2022-08-04T00:32:40;37.90;40.00
21801;DHT22;11062;51.164;16.924;2022-08-04T00:35:08;37.80;40.40
21801;DHT22;11062;51.164;16.924;2022-08-04T00:37:37;37.40;40.40
21801;DHT22;11062;51.164;16.924;2022-08-04T00:40:12;37.20;40.60
21801;DHT22;11062;51.164;16.924;2022-08-04T00:42:50;37.10;40.90
21801;DHT22;11062;51.164;16.924;2022-08-04T01:02:28;36.70;41.00
21801;DHT22;11062;51.164;16.924;2022-08-04T01:05:05;36.80;40.50
21801;DHT22;11062;51.164;16.924;2022-08-04T01:13:28;37.20;39.60
21801;DHT22;11062;51.164;16.924;2022-08-04T01:16:08;37.50;39.90
21801;DHT22;11062;51.164;16.924;2022-08-04T01:27:31;37.40;39.90
21801;DHT22;11062;51.164;16.924;2022-08-04T01:30:08;37.40;39.30
21801;DHT22;11062;51.164;16.924;2022-08-04T01:32:43;37.20;39.50
21801;DHT22;11062;51.164;16.924;2022-08-04T01:35:23;37.00;40.10
21801;DHT22;11062;51.164;16.924;2022-08-04T01:38:27;37.00;40.40
21801;DHT22;11062;51.164;16.924;2022-08-04T01:41:18;36.90;40.30
21801;DHT22;11062;51.164;16.924;2022-08-04T01:43:48;37.00;40.40
21801;DHT22;11062;51.164;16.924;2022-08-04T01:46:22;37.10;40.30
21801;DHT22;11062;51.164;16.924;2022-08-04T01:49:13;37.40;40.00
21801;DHT22;11062;51.164;16.924;2022-08-04T01:52:08;37.60;39.50
21801;DHT22;11062;51.164;16.924;2022-08-04T01:54:47;37.70;39.90
21801;DHT22;11062;51.164;16.924;2022-08-04T01:57:33;37.80;39.00
21801;DHT22;11062;51.164;16.924;2022-08-04T02:00:00;37.70;38.90
21801;DHT22;11062;51.164;16.924;2022-08-04T02:02:27;37.60;39.10
21801;DHT22;11062;51.164;16.924;2022-08-04T02:04:58;37.40;39.10
21801;DHT22;11062;51.164;16.924;2022-08-04T02:07:46;37.40;39.00
21801;DHT22;11062;51.164;16.924;2022-08-04T02:13:22;37.20;39.80
21801;DHT22;11062;51.164;16.924;2022-08-04T02:16:41;37.20;39.80
21801;DHT22;11062;51.164;16.924;2022-08-04T02:21:56;37.60;38.70
21801;DHT22;11062;51.164;16.924;2022-08-04T02:24:31;37.60;38.70
21801;DHT22;11062;51.164;16.924;2022-08-04T02:26:57;37.80;38.80
21801;DHT22;11062;51.164;16.924;2022-08-04T02:29:50;38.00;38.70
21801;DHT22;11062;51.164;16.924;2022-08-04T02:32:29;37.90;38.30
21801;DHT22;11062;51.164;16.924;2022-08-04T02:35:05;37.60;39.00
21801;DHT22;11062;51.164;16.924;2022-08-04T02:37:32;37.70;39.10
21801;DHT22;11062;51.164;16.924;2022-08-04T02:40:01;37.70;38.80
21801;DHT22;11062;51.164;16.924;2022-08-04T02:42:32;37.50;38.50
21801;DHT22;11062;51.164;16.924;2022-08-04T02:45:37;37.40;39.20
21801;DHT22;11062;51.164;16.924;2022-08-04T02:48:56;37.40;39.20
21801;DHT22;11062;51.164;16.924;2022-08-04T02:52:29;37.40;39.50
21801;DHT22;11062;51.164;16.924;2022-08-04T02:55:28;37.00;39.60
21801;DHT22;11062;51.164;16.924;2022-08-04T03:02:33;37.50;39.30
21801;DHT22;11062;51.164;16.924;2022-08-04T03:05:17;37.60;39.40
21801;DHT22;11062;51.164;16.924;2022-08-04T03:07:56;37.60;39.10
21801;DHT22;11062;51.164;16.924;2022-08-04T03:19:24;37.60;39.30
21801;DHT22;11062;51.164;16.924;2022-08-04T03:28:15;37.70;39.20
21801;DHT22;11062;51.164;16.924;2022-08-04T03:40:13;37.60;39.60
21801;DHT22;11062;51.164;16.924;2022-08-04T03:46:14;37.70;39.50
21801;DHT22;11062;51.164;16.924;2022-08-04T04:00:51;37.50;39.60
21801;DHT22;11062;51.164;16.924;2022-08-04T04:32:20;37.90;39.00
21801;DHT22;11062;51.164;16.924;2022-08-04T04:37:48;38.10;39.10
21801;DHT22;11062;51.164;16.924;2022-08-04T04:40:33;38.10;38.90
21801;DHT22;11062;51.164;16.924;2022-08-04T04:49:21;38.10;39.10
21801;DHT22;11062;51.164;16.924;2022-08-04T04:52:02;37.90;39.10
21801;DHT22;11062;51.164;16.924;2022-08-04T04:57:20;38.00;39.30
21801;DHT22;11062;51.164;16.924;2022-08-04T05:00:07;37.90;39.40
21801;DHT22;11062;51.164;16.924;2022-08-04T05:03:08;38.10;39.50
21801;DHT22;11062;51.164;16.924;2022-08-04T05:08:50;38.20;39.50
21801;DHT22;11062;51.164;16.924;2022-08-04T05:14:38;38.50;39.50
21801;DHT22;11062;51.164;16.924;2022-08-04T05:17:35;38.60;39.50
21801;DHT22;11062;51.164;16.924;2022-08-04T05:20:17;38.70;39.70
21801;DHT22;11062;51.164;16.924;2022-08-04T05:23:25;38.70;39.50
21801;DHT22;11062;51.164;16.924;2022-08-04T05:25:58;38.70;39.50
21801;DHT22;11062;51.164;16.924;2022-08-04T05:28:42;38.80;39.70
21801;DHT22;11062;51.164;16.924;2022-08-04T05:31:29;38.90;39.60
21801;DHT22;11062;51.164;16.924;2022-08-04T05:34:19;38.70;39.70
21801;DHT22;11062;51.164;16.924;2022-08-04T05:37:13;38.70;39.60
21801;DHT22;11062;51.164;16.924;2022-08-04T05:39:56;38.70;39.80
21801;DHT22;11062;51.164;16.924;2022-08-04T05:42:24;38.70;40.20
21801;DHT22;11062;51.164;16.924;2022-08-04T05:44:54;38.60;40.10
21801;DHT22;11062;51.164;16.924;2022-08-04T05:47:24;38.80;39.90
21801;DHT22;11062;51.164;16.924;2022-08-04T05:49:58;38.80;39.90
21801;DHT22;11062;51.164;16.924;2022-08-04T05:52:48;38.80;40.00
21801;DHT22;11062;51.164;16.924;2022-08-04T05:55:18;39.00;39.60
21801;DHT22;11062;51.164;16.924;2022-08-04T05:57:56;39.00;39.70
21801;DHT22;11062;51.164;16.924;2022-08-04T06:00:37;39.20;39.50
21801;DHT22;11062;51.164;16.924;2022-08-04T06:03:28;39.30;39.30
21801;DHT22;11062;51.164;16.924;2022-08-04T06:06:13;39.40;39.20
21801;DHT22;11062;51.164;16.924;2022-08-04T06:08:42;39.40;39.20
21801;DHT22;11062;51.164;16.924;2022-08-04T06:11:11;39.50;39.00
21801;DHT22;11062;51.164;16.924;2022-08-04T06:13:43;39.50;38.90
21801;DHT22;11062;51.164;16.924;2022-08-04T06:16:14;39.50;39.20
21801;DHT22;11062;51.164;16.924;2022-08-04T06:18:43;39.60;39.20
21801;DHT22;11062;51.164;16.924;2022-08-04T06:21:10;39.70;38.80
21801;DHT22;11062;51.164;16.924;2022-08-04T06:23:44;39.70;38.70
21801;DHT22;11062;51.164;16.924;2022-08-04T06:26:12;39.70;39.00
21801;DHT22;11062;51.164;16.924;2022-08-04T06:28:53;39.50;38.90
21801;DHT22;11062;51.164;16.924;2022-08-04T06:31:23;39.60;38.90
21801;DHT22;11062;51.164;16.924;2022-08-04T06:34:13;39.80;38.90
21801;DHT22;11062;51.164;16.924;2022-08-04T06:36:41;39.90;38.90
21801;DHT22;11062;51.164;16.924;2022-08-04T06:39:09;39.90;38.70
21801;DHT22;11062;51.164;16.924;2022-08-04T06:41:38;39.90;38.50
21801;DHT22;11062;51.164;16.924;2022-08-04T06:44:08;40.00;38.30
21801;DHT22;11062;51.164;16.924;2022-08-04T06:46:37;40.10;38.30
21801;DHT22;11062;51.164;16.924;2022-08-04T06:49:05;40.20;38.30
21801;DHT22;11062;51.164;16.924;2022-08-04T06:51:34;40.30;38.40
21801;DHT22;11062;51.164;16.924;2022-08-04T06:54:15;40.30;38.80
21801;DHT22;11062;51.164;16.924;2022-08-04T06:57:06;40.40;38.80
21801;DHT22;11062;51.164;16.924;2022-08-04T07:00:12;40.50;38.60
21801;DHT22;11062;51.164;16.924;2022-08-04T07:02:49;40.70;38.40
21801;DHT22;11062;51.164;16.924;2022-08-04T07:05:19;40.90;38.10
21801;DHT22;11062;51.164;16.924;2022-08-04T07:07:47;41.10;37.80
21801;DHT22;11062;51.164;16.924;2022-08-04T07:10:16;41.30;37.10
21801;DHT22;11062;51.164;16.924;2022-08-04T07:12:45;41.30;37.30
21801;DHT22;11062;51.164;16.924;2022-08-04T07:15:13;41.40;37.40
21801;DHT22;11062;51.164;16.924;2022-08-04T07:17:39;41.40;37.30
21801;DHT22;11062;51.164;16.924;2022-08-04T07:20:18;41.50;37.10
21801;DHT22;11062;51.164;16.924;2022-08-04T07:22:48;41.40;37.10
21801;DHT22;11062;51.164;16.924;2022-08-04T07:25:21;41.30;37.30
21801;DHT22;11062;51.164;16.924;2022-08-04T07:27:49;41.30;37.50
21801;DHT22;11062;51.164;16.924;2022-08-04T07:30:19;41.10;37.80
21801;DHT22;11062;51.164;16.924;2022-08-04T07:32:48;41.30;37.40
21801;DHT22;11062;51.164;16.924;2022-08-04T07:35:15;41.40;37.40
21801;DHT22;11062;51.164;16.924;2022-08-04T07:37:42;41.60;37.20
21801;DHT22;11062;51.164;16.924;2022-08-04T07:43:08;41.60;37.10
21801;DHT22;11062;51.164;16.924;2022-08-04T07:45:37;41.70;37.30
21801;DHT22;11062;51.164;16.924;2022-08-04T07:48:05;41.70;37.00
21801;DHT22;11062;51.164;16.924;2022-08-04T07:50:43;41.90;37.20
21801;DHT22;11062;51.164;16.924;2022-08-04T07:53:12;42.00;36.80
21801;DHT22;11062;51.164;16.924;2022-08-04T07:55:39;42.10;36.70
21801;DHT22;11062;51.164;16.924;2022-08-04T07:58:10;42.00;36.50
21801;DHT22;11062;51.164;16.924;2022-08-04T08:00:38;42.10;36.80
21801;DHT22;11062;51.164;16.924;2022-08-04T08:03:06;41.90;37.00
21801;DHT22;11062;51.164;16.924;2022-08-04T08:05:41;41.90;36.40
21801;DHT22;11062;51.164;16.924;2022-08-04T08:08:08;41.90;36.10
21801;DHT22;11062;51.164;16.924;2022-08-04T08:10:44;42.00;35.80
21801;DHT22;11062;51.164;16.924;2022-08-04T08:13:10;42.20;34.60
21801;DHT22;11062;51.164;16.924;2022-08-04T08:15:38;42.20;34.80
21801;DHT22;11062;51.164;16.924;2022-08-04T08:18:05;42.30;34.40
21801;DHT22;11062;51.164;16.924;2022-08-04T08:20:36;42.40;35.00
21801;DHT22;11062;51.164;16.924;2022-08-04T08:23:06;42.60;34.40
21801;DHT22;11062;51.164;16.924;2022-08-04T08:25:37;42.90;34.10
21801;DHT22;11062;51.164;16.924;2022-08-04T08:28:14;42.60;33.90
21801;DHT22;11062;51.164;16.924;2022-08-04T08:30:43;42.90;34.10
21801;DHT22;11062;51.164;16.924;2022-08-04T08:33:15;42.40;33.70
21801;DHT22;11062;51.164;16.924;2022-08-04T08:38:12;41.40;35.20
21801;DHT22;11062;51.164;16.924;2022-08-04T08:40:54;41.50;35.60
21801;DHT22;11062;51.164;16.924;2022-08-04T08:43:34;41.10;34.60
21801;DHT22;11062;51.164;16.924;2022-08-04T08:46:30;41.40;34.80
21801;DHT22;11062;51.164;16.924;2022-08-04T09:10:01;41.60;33.50
21801;DHT22;11062;51.164;16.924;2022-08-04T09:21:48;42.40;32.90
21801;DHT22;11062;51.164;16.924;2022-08-04T09:24:47;42.60;33.20
21801;DHT22;11062;51.164;16.924;2022-08-04T09:30:12;42.50;32.50
21801;DHT22;11062;51.164;16.924;2022-08-04T09:37:00;43.30;32.70
21801;DHT22;11062;51.164;16.924;2022-08-04T09:46:19;43.30;33.40
21801;DHT22;11062;51.164;16.924;2022-08-04T09:57:44;43.60;33.40
21801;DHT22;11062;51.164;16.924;2022-08-04T10:00:29;43.80;32.70
21801;DHT22;11062;51.164;16.924;2022-08-04T10:03:01;44.20;32.80
21801;DHT22;11062;51.164;16.924;2022-08-04T10:14:46;45.40;30.60
21801;DHT22;11062;51.164;16.924;2022-08-04T10:17:37;45.80;31.10
21801;DHT22;11062;51.164;16.924;2022-08-04T10:20:10;46.40;30.90
21801;DHT22;11062;51.164;16.924;2022-08-04T10:29:47;46.90;29.90
21801;DHT22;11062;51.164;16.924;2022-08-04T10:33:03;47.10;29.80
21801;DHT22;11062;51.164;16.924;2022-08-04T10:35:54;47.60;29.50
21801;DHT22;11062;51.164;16.924;2022-08-04T10:38:29;47.70;29.70
21801;DHT22;11062;51.164;16.924;2022-08-04T10:46:16;48.30;28.70
21801;DHT22;11062;51.164;16.924;2022-08-04T10:49:09;48.40;28.20
21801;DHT22;11062;51.164;16.924;2022-08-04T10:51:52;48.40;28.30
21801;DHT22;11062;51.164;16.924;2022-08-04T11:08:05;49.50;27.80
21801;DHT22;11062;51.164;16.924;2022-08-04T11:10:47;49.80;27.70
21801;DHT22;11062;51.164;16.924;2022-08-04T11:13:18;49.80;27.40
21801;DHT22;11062;51.164;16.924;2022-08-04T11:15:52;50.00;27.00
21801;DHT22;11062;51.164;16.924;2022-08-04T11:21:24;50.10;26.60
21801;DHT22;11062;51.164;16.924;2022-08-04T11:24:17;50.40;27.40
21801;DHT22;11062;51.164;16.924;2022-08-04T11:27:00;50.60;27.10
21801;DHT22;11062;51.164;16.924;2022-08-04T11:32:16;50.90;26.80
21801;DHT22;11062;51.164;16.924;2022-08-04T11:34:47;51.30;26.30
21801;DHT22;11062;51.164;16.924;2022-08-04T11:37:20;51.30;26.50
21801;DHT22;11062;51.164;16.924;2022-08-04T11:39:58;51.40;25.90
21801;DHT22;11062;51.164;16.924;2022-08-04T11:42:48;51.70;26.20
21801;DHT22;11062;51.164;16.924;2022-08-04T11:45:27;51.80;25.90
21801;DHT22;11062;51.164;16.924;2022-08-04T11:48:23;51.90;25.80
21801;DHT22;11062;51.164;16.924;2022-08-04T11:50:53;52.00;25.70
21801;DHT22;11062;51.164;16.924;2022-08-04T11:53:25;52.20;26.00
21801;DHT22;11062;51.164;16.924;2022-08-04T11:56:03;52.30;25.90
21801;DHT22;11062;51.164;16.924;2022-08-04T11:58:37;52.30;25.50
21801;DHT22;11062;51.164;16.924;2022-08-04T12:01:22;52.50;25.50
21801;DHT22;11062;51.164;16.924;2022-08-04T12:04:04;52.50;25.50
21801;DHT22;11062;51.164;16.924;2022-08-04T12:06:48;52.60;25.80
21801;DHT22;11062;51.164;16.924;2022-08-04T12:15:18;53.30;25.40
21801;DHT22;11062;51.164;16.924;2022-08-04T12:21:17;53.50;25.30
21801;DHT22;11062;51.164;16.924;2022-08-04T12:26:41;53.80;25.20
21801;DHT22;11062;51.164;16.924;2022-08-04T12:29:16;53.90;25.10
21801;DHT22;11062;51.164;16.924;2022-08-04T12:34:43;54.20;24.90
21801;DHT22;11062;51.164;16.924;2022-08-04T12:40:15;54.60;26.10
21801;DHT22;11062;51.164;16.924;2022-08-04T12:49:13;55.00;24.70
21801;DHT22;11062;51.164;16.924;2022-08-04T12:57:33;55.30;24.20
21801;DHT22;11062;51.164;16.924;2022-08-04T13:00:07;55.40;24.30
21801;DHT22;11062;51.164;16.924;2022-08-04T13:03:03;55.60;25.00
21801;DHT22;11062;51.164;16.924;2022-08-04T13:05:57;55.80;24.30
21801;DHT22;11062;51.164;16.924;2022-08-04T13:08:34;55.90;24.20
21801;DHT22;11062;51.164;16.924;2022-08-04T13:11:28;56.10;23.90
21801;DHT22;11062;51.164;16.924;2022-08-04T13:14:17;56.30;24.20
21801;DHT22;11062;51.164;16.924;2022-08-04T13:17:18;56.30;24.30
21801;DHT22;11062;51.164;16.924;2022-08-04T13:29:06;56.90;23.60
21801;DHT22;11062;51.164;16.924;2022-08-04T13:31:44;57.00;23.80
21801;DHT22;11062;51.164;16.924;2022-08-04T14:18:43;56.10;23.50
21801;DHT22;11062;51.164;16.924;2022-08-04T14:44:56;54.80;24.20
21801;DHT22;11062;51.164;16.924;2022-08-04T14:53:18;54.60;23.90
21801;DHT22;11062;51.164;16.924;2022-08-04T15:21:28;54.80;23.40
21801;DHT22;11062;51.164;16.924;2022-08-04T15:24:24;55.00;23.90
21801;DHT22;11062;51.164;16.924;2022-08-04T15:26:54;54.90;24.10
21801;DHT22;11062;51.164;16.924;2022-08-04T15:29:48;55.00;23.70
21801;DHT22;11062;51.164;16.924;2022-08-04T15:35:04;54.90;24.10
21801;DHT22;11062;51.164;16.924;2022-08-04T15:37:48;54.90;24.60
21801;DHT22;11062;51.164;16.924;2022-08-04T15:41:19;54.50;24.20
21801;DHT22;11062;51.164;16.924;2022-08-04T15:55:42;54.70;24.40
21801;DHT22;11062;51.164;16.924;2022-08-04T15:58:13;54.30;24.70
21801;DHT22;11062;51.164;16.924;2022-08-04T16:08:59;53.90;25.00
21801;DHT22;11062;51.164;16.924;2022-08-04T16:14:29;53.70;25.00
21801;DHT22;11062;51.164;16.924;2022-08-04T16:17:13;53.40;25.00
21801;DHT22;11062;51.164;16.924;2022-08-04T16:19:56;53.20;25.10
21801;DHT22;11062;51.164;16.924;2022-08-04T16:22:39;53.20;25.30
21801;DHT22;11062;51.164;16.924;2022-08-04T16:25:07;53.20;25.20
21801;DHT22;11062;51.164;16.924;2022-08-04T16:27:42;53.30;25.10
21801;DHT22;11062;51.164;16.924;2022-08-04T16:30:11;53.10;25.30
21801;DHT22;11062;51.164;16.924;2022-08-04T16:32:45;52.90;25.30
21801;DHT22;11062;51.164;16.924;2022-08-04T16:35:25;52.80;25.30
21801;DHT22;11062;51.164;16.924;2022-08-04T16:38:13;52.70;25.50
21801;DHT22;11062;51.164;16.924;2022-08-04T16:40:40;52.50;25.40
21801;DHT22;11062;51.164;16.924;2022-08-04T16:43:15;52.80;25.60
21801;DHT22;11062;51.164;16.924;2022-08-04T16:48:12;52.80;25.80
21801;DHT22;11062;51.164;16.924;2022-08-04T16:50:47;52.80;25.90
21801;DHT22;11062;51.164;16.924;2022-08-04T16:53:14;52.60;25.70
21801;DHT22;11062;51.164;16.924;2022-08-04T16:55:50;52.60;25.80
21801;DHT22;11062;51.164;16.924;2022-08-04T16:58:17;52.50;25.90
21801;DHT22;11062;51.164;16.924;2022-08-04T17:00:48;52.40;25.90
21801;DHT22;11062;51.164;16.924;2022-08-04T17:03:20;52.30;25.80
21801;DHT22;11062;51.164;16.924;2022-08-04T17:05:46;52.30;25.90
21801;DHT22;11062;51.164;16.924;2022-08-04T17:08:13;52.20;26.00
21801;DHT22;11062;51.164;16.924;2022-08-04T17:10:46;52.20;26.00
21801;DHT22;11062;51.164;16.924;2022-08-04T17:13:33;52.20;26.10
21801;DHT22;11062;51.164;16.924;2022-08-04T17:16:12;52.10;26.10
21801;DHT22;11062;51.164;16.924;2022-08-04T17:18:58;52.00;26.10
21801;DHT22;11062;51.164;16.924;2022-08-04T17:21:33;51.90;26.10
21801;DHT22;11062;51.164;16.924;2022-08-04T17:24:05;51.70;26.10
21801;DHT22;11062;51.164;16.924;2022-08-04T17:26:34;51.70;26.30
21801;DHT22;11062;51.164;16.924;2022-08-04T17:29:01;51.50;26.40
21801;DHT22;11062;51.164;16.924;2022-08-04T17:31:30;51.50;26.60
21801;DHT22;11062;51.164;16.924;2022-08-04T17:34:22;51.40;26.60
21801;DHT22;11062;51.164;16.924;2022-08-04T17:36:50;51.30;26.60
21801;DHT22;11062;51.164;16.924;2022-08-04T17:39:19;51.10;26.70
21801;DHT22;11062;51.164;16.924;2022-08-04T17:41:54;51.10;27.30
21801;DHT22;11062;51.164;16.924;2022-08-04T17:44:37;50.90;26.70
21801;DHT22;11062;51.164;16.924;2022-08-04T17:47:15;50.90;26.90
21801;DHT22;11062;51.164;16.924;2022-08-04T17:49:41;50.70;26.90
21801;DHT22;11062;51.164;16.924;2022-08-04T17:52:21;50.60;27.10
21801;DHT22;11062;51.164;16.924;2022-08-04T17:54:58;50.40;27.20
21801;DHT22;11062;51.164;16.924;2022-08-04T17:57:26;50.20;27.50
21801;DHT22;11062;51.164;16.924;2022-08-04T17:59:57;50.00;27.70
21801;DHT22;11062;51.164;16.924;2022-08-04T18:02:29;49.90;28.30
21801;DHT22;11062;51.164;16.924;2022-08-04T18:04:55;49.70;28.50
21801;DHT22;11062;51.164;16.924;2022-08-04T18:07:34;49.50;28.90
21801;DHT22;11062;51.164;16.924;2022-08-04T18:10:01;49.40;29.10
21801;DHT22;11062;51.164;16.924;2022-08-04T18:12:39;49.20;29.70
21801;DHT22;11062;51.164;16.924;2022-08-04T18:15:21;48.90;29.90
21801;DHT22;11062;51.164;16.924;2022-08-04T18:17:50;48.70;30.00
21801;DHT22;11062;51.164;16.924;2022-08-04T18:20:19;48.50;30.10
21801;DHT22;11062;51.164;16.924;2022-08-04T18:22:47;48.20;30.50
21801;DHT22;11062;51.164;16.924;2022-08-04T18:25:16;48.00;30.90
21801;DHT22;11062;51.164;16.924;2022-08-04T18:27:50;47.70;31.10
21801;DHT22;11062;51.164;16.924;2022-08-04T18:30:17;47.50;31.40
21801;DHT22;11062;51.164;16.924;2022-08-04T18:32:43;47.30;31.70
21801;DHT22;11062;51.164;16.924;2022-08-04T18:35:12;47.10;31.60
21801;DHT22;11062;51.164;16.924;2022-08-04T18:37:39;46.90;31.60
21801;DHT22;11062;51.164;16.924;2022-08-04T18:40:07;46.70;31.90
21801;DHT22;11062;51.164;16.924;2022-08-04T18:42:38;46.50;32.20
21801;DHT22;11062;51.164;16.924;2022-08-04T18:45:05;46.30;32.50
21801;DHT22;11062;51.164;16.924;2022-08-04T18:47:31;46.10;32.30
21801;DHT22;11062;51.164;16.924;2022-08-04T18:49:58;45.90;32.50
21801;DHT22;11062;51.164;16.924;2022-08-04T18:52:25;45.80;32.70
21801;DHT22;11062;51.164;16.924;2022-08-04T18:54:52;45.60;32.90
21801;DHT22;11062;51.164;16.924;2022-08-04T18:57:20;45.40;32.90
21801;DHT22;11062;51.164;16.924;2022-08-04T18:59:49;45.30;33.10
21801;DHT22;11062;51.164;16.924;2022-08-04T19:02:20;45.20;33.50
21801;DHT22;11062;51.164;16.924;2022-08-04T19:04:46;45.00;33.70
21801;DHT22;11062;51.164;16.924;2022-08-04T19:07:15;44.90;33.90
21801;DHT22;11062;51.164;16.924;2022-08-04T19:09:43;44.70;33.90
21801;DHT22;11062;51.164;16.924;2022-08-04T19:12:10;44.60;34.10
21801;DHT22;11062;51.164;16.924;2022-08-04T19:14:42;44.50;34.30
21801;DHT22;11062;51.164;16.924;2022-08-04T19:17:10;44.50;34.40
21801;DHT22;11062;51.164;16.924;2022-08-04T19:19:36;44.40;34.50
21801;DHT22;11062;51.164;16.924;2022-08-04T19:22:04;44.30;34.50
21801;DHT22;11062;51.164;16.924;2022-08-04T19:24:33;44.20;34.80
21801;DHT22;11062;51.164;16.924;2022-08-04T19:27:03;44.10;34.80
21801;DHT22;11062;51.164;16.924;2022-08-04T19:29:37;44.00;34.90
21801;DHT22;11062;51.164;16.924;2022-08-04T19:32:05;43.90;35.20
21801;DHT22;11062;51.164;16.924;2022-08-04T19:34:35;43.70;35.00
21801;DHT22;11062;51.164;16.924;2022-08-04T19:37:06;43.60;35.10
21801;DHT22;11062;51.164;16.924;2022-08-04T19:39:56;43.50;35.40
21801;DHT22;11062;51.164;16.924;2022-08-04T19:47:33;43.00;35.40
21801;DHT22;11062;51.164;16.924;2022-08-04T19:50:20;42.70;35.80
21801;DHT22;11062;51.164;16.924;2022-08-04T19:52:57;42.50;36.10
21801;DHT22;11062;51.164;16.924;2022-08-04T19:55:38;42.10;36.60
21801;DHT22;11062;51.164;16.924;2022-08-04T19:58:28;41.80;36.80
21801;DHT22;11062;51.164;16.924;2022-08-04T20:03:31;41.30;37.40
21801;DHT22;11062;51.164;16.924;2022-08-04T20:05:57;41.10;37.40
21801;DHT22;11062;51.164;16.924;2022-08-04T20:10:58;40.90;38.00
21801;DHT22;11062;51.164;16.924;2022-08-04T20:13:25;41.00;37.50
21801;DHT22;11062;51.164;16.924;2022-08-04T20:15:51;41.00;37.30
21801;DHT22;11062;51.164;16.924;2022-08-04T20:18:18;41.00;37.40
21801;DHT22;11062;51.164;16.924;2022-08-04T20:20:52;40.80;37.30
21801;DHT22;11062;51.164;16.924;2022-08-04T20:23:19;40.80;37.80
21801;DHT22;11062;51.164;16.924;2022-08-04T20:25:46;40.80;37.40
21801;DHT22;11062;51.164;16.924;2022-08-04T20:57:07;40.30;37.80
21801;DHT22;11062;51.164;16.924;2022-08-04T20:59:39;40.30;37.70
21801;DHT22;11062;51.164;16.924;2022-08-04T21:02:30;40.30;37.90
21801;DHT22;11062;51.164;16.924;2022-08-04T21:05:03;40.50;37.80
21801;DHT22;11062;51.164;16.924;2022-08-04T21:07:33;40.60;37.50
21801;DHT22;11062;51.164;16.924;2022-08-04T21:10:02;40.80;37.50
21801;DHT22;11062;51.164;16.924;2022-08-04T21:12:28;40.80;37.50
21801;DHT22;11062;51.164;16.924;2022-08-04T21:14:57;40.90;37.20
21801;DHT22;11062;51.164;16.924;2022-08-04T21:17:28;40.90;37.20
21801;DHT22;11062;51.164;16.924;2022-08-04T21:20:05;40.90;37.00
21801;DHT22;11062;51.164;16.924;2022-08-04T21:23:40;40.90;36.60
21801;DHT22;11062;51.164;16.924;2022-08-04T21:26:23;40.80;36.40
21801;DHT22;11062;51.164;16.924;2022-08-04T21:29:14;40.90;36.40
21801;DHT22;11062;51.164;16.924;2022-08-04T21:32:00;40.90;36.40
21801;DHT22;11062;51.164;16.924;2022-08-04T21:34:31;40.80;36.70
21801;DHT22;11062;51.164;16.924;2022-08-04T21:37:10;40.80;36.50
21801;DHT22;11062;51.164;16.924;2022-08-04T21:43:33;40.50;36.60
21801;DHT22;11062;51.164;16.924;2022-08-04T21:46:00;40.60;36.70
21801;DHT22;11062;51.164;16.924;2022-08-04T21:48:27;40.70;36.50
21801;DHT22;11062;51.164;16.924;2022-08-04T21:51:11;40.90;36.40
21801;DHT22;11062;51.164;16.924;2022-08-04T21:53:50;41.20;36.40
21801;DHT22;11062;51.164;16.924;2022-08-04T21:56:56;41.30;35.60
21801;DHT22;11062;51.164;16.924;2022-08-04T21:59:49;41.60;35.30
21801;DHT22;11062;51.164;16.924;2022-08-04T22:02:47;41.70;35.00
21801;DHT22;11062;51.164;16.924;2022-08-04T22:05:33;41.70;35.20
21801;DHT22;11062;51.164;16.924;2022-08-04T22:12:13;41.80;35.10
21801;DHT22;11062;51.164;16.924;2022-08-04T22:14:46;41.80;35.30
21801;DHT22;11062;51.164;16.924;2022-08-04T22:17:15;41.70;35.40
21801;DHT22;11062;51.164;16.924;2022-08-04T22:19:43;41.60;35.30
21801;DHT22;11062;51.164;16.924;2022-08-04T22:22:28;41.60;35.40
21801;DHT22;11062;51.164;16.924;2022-08-04T22:25:20;41.50;35.20
21801;DHT22;11062;51.164;16.924;2022-08-04T22:28:06;41.40;35.60
21801;DHT22;11062;51.164;16.924;2022-08-04T22:30:34;41.30;35.60
21801;DHT22;11062;51.164;16.924;2022-08-04T22:33:05;41.10;35.80
21801;DHT22;11062;51.164;16.924;2022-08-04T22:35:34;40.80;36.10
21801;DHT22;11062;51.164;16.924;2022-08-04T22:38:04;40.80;36.20
21801;DHT22;11062;51.164;16.924;2022-08-04T22:40:30;40.60;36.40
21801;DHT22;11062;51.164;16.924;2022-08-04T22:42:59;40.50;36.40
21801;DHT22;11062;51.164;16.924;2022-08-04T22:45:28;40.60;36.40
21801;DHT22;11062;51.164;16.924;2022-08-04T22:47:54;40.50;36.50
21801;DHT22;11062;51.164;16.924;2022-08-04T22:50:21;40.40;36.70
21801;DHT22;11062;51.164;16.924;2022-08-04T22:52:48;40.30;36.60
21801;DHT22;11062;51.164;16.924;2022-08-04T22:55:13;40.40;36.50
21801;DHT22;11062;51.164;16.924;2022-08-04T22:57:39;40.20;36.70
21801;DHT22;11062;51.164;16.924;2022-08-04T23:00:06;40.00;37.00
21801;DHT22;11062;51.164;16.924;2022-08-04T23:02:32;39.90;37.00
21801;DHT22;11062;51.164;16.924;2022-08-04T23:04:58;40.20;36.70
21801;DHT22;11062;51.164;16.924;2022-08-04T23:07:24;40.50;36.50
21801;DHT22;11062;51.164;16.924;2022-08-04T23:09:50;40.70;36.20
21801;DHT22;11062;51.164;16.924;2022-08-04T23:12:18;40.90;35.80
21801;DHT22;11062;51.164;16.924;2022-08-04T23:14:44;40.90;35.70
21801;DHT22;11062;51.164;16.924;2022-08-04T23:17:12;41.00;35.90
21801;DHT22;11062;51.164;16.924;2022-08-04T23:19:38;40.90;35.80
21801;DHT22;11062;51.164;16.924;2022-08-04T23:22:05;41.00;35.60
21801;DHT22;11062;51.164;16.924;2022-08-04T23:24:30;41.10;35.60
21801;DHT22;11062;51.164;16.924;2022-08-04T23:26:57;41.30;35.60
21801;DHT22;11062;51.164;16.924;2022-08-04T23:29:25;41.30;35.50
21801;DHT22;11062;51.164;16.924;2022-08-04T23:31:51;41.40;35.30
21801;DHT22;11062;51.164;16.924;2022-08-04T23:34:17;41.40;35.40
21801;DHT22;11062;51.164;16.924;2022-08-04T23:36:43;41.50;35.40